Terminal Aerodrome Forecast
Issued by NWS

Home | Current Version | Previous Version | Graphics & Text | Print | Product List | Glossary On
Versions: 1 2 3 4 5 6 7 8 9 10 11 12 13 14 15 16 17 18 19 20 21 22
000
FTUS43 KGRB 031700
TAFMTW
TAF
KMTW 031726Z 0318/0418 19011G18KT 3SM -FZDZSN BKN012
      TEMPO 0318/0321 1 1/2SM -FZDZSN BKN006
     FM032300 27010G19KT P6SM BKN018
     FM040300 28012G20KT P6SM SCT100
     FM041600 28014G24KT P6SM BKN030=

USA.gov is the U.S. government's official web portal to all federal, state and local government web resources and services.